createdAt,value
2022-12-23T00:01:04.830Z,99325.06
2022-12-23T00:03:31.265Z,99330.47
2022-12-23T00:05:57.744Z,99318.84
2022-12-23T00:08:24.268Z,99321.75
2022-12-23T00:10:50.616Z,99317.16
2022-12-23T00:13:35.763Z,99310.59
2022-12-23T00:16:02.196Z,99312.41
2022-12-23T00:18:28.533Z,99312.19
2022-12-23T00:20:54.857Z,99304.81
2022-12-23T00:23:21.223Z,99298.13
2022-12-23T00:25:47.539Z,99296.28
2022-12-23T00:28:13.927Z,99285.63
2022-12-23T00:30:41.733Z,99280.44
2022-12-23T00:33:08.056Z,99270.37
2022-12-23T00:35:34.396Z,99267.16
2022-12-23T00:38:00.752Z,99266.66
2022-12-23T00:40:46.004Z,99264.84
2022-12-23T00:43:12.357Z,99261.53
2022-12-23T00:45:38.743Z,99259.28
2022-12-23T00:48:24.032Z,99253.06
2022-12-23T00:50:50.365Z,99251.88
2022-12-23T00:53:16.675Z,99253.28
2022-12-23T00:55:43.020Z,99249.94
2022-12-23T00:58:09.332Z,99251.56
2022-12-23T01:00:54.755Z,99245.91
2022-12-23T01:03:40.066Z,99252.47
2022-12-23T01:06:06.588Z,99248.91
2022-12-23T01:08:32.914Z,99237.81
2022-12-23T01:10:59.224Z,99248.31
2022-12-23T01:13:25.533Z,99241.38
2022-12-23T01:15:51.932Z,99241.03
2022-12-23T01:18:18.249Z,99242.50
2022-12-23T01:20:44.742Z,99240.81
2022-12-23T01:23:11.064Z,99241.50
2022-12-23T01:25:37.524Z,99231.00
2022-12-23T01:28:03.846Z,99233.66
2022-12-23T01:30:30.184Z,99235.12
2022-12-23T01:32:56.532Z,99223.09
2022-12-23T01:35:22.863Z,99222.44
2022-12-23T01:37:49.220Z,99219.09
2022-12-23T01:40:15.748Z,99221.03
2022-12-23T01:42:45.413Z,99216.34
2022-12-23T01:45:11.761Z,99207.66
2022-12-23T01:47:38.081Z,99219.78
2022-12-23T01:50:04.421Z,99219.09
2022-12-23T01:52:30.726Z,99224.22
2022-12-23T01:54:57.054Z,99203.63
2022-12-23T01:57:23.414Z,99209.19
2022-12-23T02:00:10.501Z,99200.84
2022-12-23T02:02:55.778Z,99202.13
2022-12-23T02:05:22.293Z,99205.59
2022-12-23T02:08:07.468Z,99202.91
2022-12-23T02:10:33.773Z,99204.41
2022-12-23T02:13:00.111Z,99206.16
2022-12-23T02:15:45.307Z,99206.28
2022-12-23T02:18:11.619Z,99201.06
2022-12-23T02:20:37.940Z,99207.44
2022-12-23T02:23:04.266Z,99205.72
2022-12-23T02:25:30.717Z,99198.78
2022-12-23T02:27:57.037Z,99197.03
2022-12-23T02:30:23.367Z,99204.91
2022-12-23T02:32:49.741Z,99203.50
2022-12-23T02:35:16.225Z,99205.97
2022-12-23T02:37:42.543Z,99208.25
2022-12-23T02:40:08.841Z,99204.81
2022-12-23T02:42:35.144Z,99200.87
2022-12-23T02:45:01.476Z,99195.31
2022-12-23T02:47:27.783Z,99199.00
2022-12-23T02:49:54.110Z,99193.44
2022-12-23T02:52:20.538Z,99190.12
2022-12-23T02:54:46.849Z,99189.19
2022-12-23T02:57:13.197Z,99170.09
2022-12-23T02:59:39.567Z,99180.03
2022-12-23T03:02:05.947Z,99186.88
2022-12-23T03:04:32.359Z,99182.25
2022-12-23T03:07:04.325Z,99183.63
2022-12-23T03:09:33.625Z,99185.37
2022-12-23T03:11:59.958Z,99182.47
2022-12-23T03:14:26.314Z,99182.94
2022-12-23T03:16:52.669Z,99173.44
2022-12-23T03:19:18.969Z,99181.91
2022-12-23T03:21:45.353Z,99173.94
2022-12-23T03:24:11.657Z,99166.84
2022-12-23T03:26:37.988Z,99158.88
2022-12-23T03:29:04.299Z,99177.75
2022-12-23T03:31:30.709Z,99170.56
2022-12-23T03:33:57.057Z,99172.16
2022-12-23T03:36:23.355Z,99173.22
2022-12-23T03:38:49.683Z,99175.63
2022-12-23T03:41:16.021Z,99172.72
2022-12-23T03:43:48.400Z,99166.81
2022-12-23T03:46:16.982Z,99163.47
2022-12-23T03:48:43.332Z,99171.94
2022-12-23T03:51:09.652Z,99168.09
2022-12-23T03:53:35.991Z,99171.44
2022-12-23T03:56:02.431Z,99166.12
2022-12-23T03:58:28.752Z,99168.97
2022-12-23T04:00:55.119Z,99172.13
2022-12-23T04:03:21.566Z,99168.88
2022-12-23T04:05:47.906Z,99183.34
2022-12-23T04:08:14.259Z,99188.41
2022-12-23T04:10:40.570Z,99185.63
2022-12-23T04:13:06.910Z,99180.25
2022-12-23T04:15:33.270Z,99184.87
2022-12-23T04:17:59.605Z,99191.47
2022-12-23T04:20:25.975Z,99182.69
2022-12-23T04:22:52.326Z,99171.44
2022-12-23T04:25:18.650Z,99178.94
2022-12-23T04:27:44.965Z,99167.72
2022-12-23T04:30:11.269Z,99182.66
2022-12-23T04:32:37.608Z,99184.50
2022-12-23T04:35:03.922Z,99181.38
2022-12-23T04:37:30.232Z,99182.88
2022-12-23T04:39:56.544Z,99182.62
2022-12-23T04:42:22.841Z,99188.16
2022-12-23T04:44:49.152Z,99180.63
2022-12-23T04:47:15.482Z,99174.41
2022-12-23T04:49:41.788Z,99174.78
2022-12-23T04:52:08.104Z,99173.97
2022-12-23T04:54:34.436Z,99172.81
2022-12-23T04:57:00.851Z,99178.16
2022-12-23T04:59:27.191Z,99171.56
2022-12-23T05:01:53.638Z,99170.50
2022-12-23T05:04:20.094Z,99181.78
2022-12-23T05:06:46.433Z,99172.00
2022-12-23T05:09:12.750Z,99166.44
2022-12-23T05:11:42.328Z,99172.34
2022-12-23T05:14:08.963Z,99171.75
2022-12-23T05:16:35.345Z,99173.47
2022-12-23T05:19:01.927Z,99174.12
2022-12-23T05:21:28.277Z,99170.47
2022-12-23T05:23:54.604Z,99176.97
2022-12-23T05:26:20.896Z,99173.13
2022-12-23T05:28:47.536Z,99174.12
2022-12-23T05:31:13.951Z,99166.59
2022-12-23T05:33:40.402Z,99165.41
2022-12-23T05:36:06.858Z,99169.84
2022-12-23T05:38:33.164Z,99170.00
2022-12-23T05:40:59.478Z,99171.28
2022-12-23T05:43:25.880Z,99176.22
2022-12-23T05:45:52.284Z,99177.28
2022-12-23T05:48:18.667Z,99185.53
2022-12-23T05:50:44.974Z,99176.84
2022-12-23T05:53:11.301Z,99169.31
2022-12-23T05:55:37.600Z,99182.22
2022-12-23T05:58:03.907Z,99180.25
2022-12-23T06:00:30.289Z,99181.94
2022-12-23T06:02:56.657Z,99181.78
2022-12-23T06:05:23.177Z,99176.50
2022-12-23T06:07:49.528Z,99175.06
2022-12-23T06:10:15.865Z,99184.00
2022-12-23T06:12:42.204Z,99181.06
2022-12-23T06:15:08.524Z,99171.25
2022-12-23T06:17:34.845Z,99186.97
2022-12-23T06:20:01.195Z,99181.12
2022-12-23T06:22:27.527Z,99187.88
2022-12-23T06:24:53.946Z,99192.63
2022-12-23T06:27:20.269Z,99183.53
2022-12-23T06:29:46.563Z,99189.72
2022-12-23T06:32:13.092Z,99208.78
2022-12-23T06:34:39.480Z,99201.41
2022-12-23T06:37:05.851Z,99200.06
2022-12-23T06:39:32.216Z,99208.50
2022-12-23T06:41:58.546Z,99214.91
2022-12-23T06:44:24.878Z,99215.69
2022-12-23T06:46:51.215Z,99213.19
2022-12-23T06:49:17.614Z,99218.09
2022-12-23T06:51:44.096Z,99216.16
2022-12-23T06:54:10.763Z,99221.00
2022-12-23T06:56:37.071Z,99222.53
2022-12-23T06:59:03.399Z,99222.91
2022-12-23T07:01:29.936Z,99231.53
2022-12-23T07:03:56.341Z,99227.84
2022-12-23T07:06:22.637Z,99228.66
2022-12-23T07:08:48.960Z,99231.81
2022-12-23T07:11:15.269Z,99230.53
2022-12-23T07:13:41.576Z,99234.03
2022-12-23T07:16:07.990Z,99237.97
2022-12-23T07:18:34.763Z,99233.47
2022-12-23T07:21:01.084Z,99237.88
2022-12-23T07:23:27.386Z,99238.16
2022-12-23T07:25:53.732Z,99236.91
2022-12-23T07:28:20.113Z,99243.91
2022-12-23T07:30:46.611Z,99240.94
2022-12-23T07:33:12.924Z,99245.97
2022-12-23T07:35:39.439Z,99250.28
2022-12-23T07:38:05.759Z,99245.59
2022-12-23T07:40:32.086Z,99261.13
2022-12-23T07:42:58.424Z,99255.19
2022-12-23T07:45:24.724Z,99259.97
2022-12-23T07:47:51.042Z,99266.50
2022-12-23T07:50:17.432Z,99261.66
2022-12-23T07:52:43.742Z,99266.22
2022-12-23T07:55:10.133Z,99265.06
2022-12-23T07:57:38.263Z,99261.69
2022-12-23T08:00:04.732Z,99259.81
2022-12-23T08:02:31.177Z,99265.72
2022-12-23T08:04:57.752Z,99270.56
2022-12-23T08:07:24.076Z,99274.69
2022-12-23T08:09:50.398Z,99277.19
2022-12-23T08:12:16.716Z,99276.94
2022-12-23T08:14:43.025Z,99272.03
2022-12-23T08:17:09.431Z,99266.44
2022-12-23T08:19:35.775Z,99270.94
2022-12-23T08:22:02.088Z,99266.91
2022-12-23T08:24:28.429Z,99268.25
2022-12-23T08:26:54.901Z,99276.72
2022-12-23T08:29:21.217Z,99270.41
2022-12-23T08:31:47.528Z,99268.97
2022-12-23T08:34:14.482Z,99270.50
2022-12-23T08:36:40.792Z,99267.34
2022-12-23T08:39:07.116Z,99263.88
2022-12-23T08:41:33.515Z,99271.69
2022-12-23T08:43:59.884Z,99267.72
2022-12-23T08:46:26.431Z,99270.69
2022-12-23T08:48:52.820Z,99275.19
2022-12-23T08:51:19.185Z,99280.66
2022-12-23T08:53:45.557Z,99278.16
2022-12-23T08:56:11.898Z,99289.38
2022-12-23T08:58:38.257Z,99297.00
2022-12-23T09:01:04.623Z,99301.34
2022-12-23T09:03:31.109Z,99284.44
2022-12-23T09:05:57.540Z,99290.88
2022-12-23T09:08:23.875Z,99295.38
2022-12-23T09:10:50.210Z,99293.06
2022-12-23T09:13:26.346Z,99292.34
2022-12-23T09:15:57.268Z,99295.28
2022-12-23T09:18:23.663Z,99297.00
2022-12-23T09:20:49.996Z,99293.06
2022-12-23T09:23:16.301Z,99300.16
2022-12-23T09:25:42.609Z,99296.22
2022-12-23T09:28:08.977Z,99293.94
2022-12-23T09:30:35.371Z,99289.81
2022-12-23T09:33:01.686Z,99289.28
2022-12-23T09:35:28.041Z,99293.03
2022-12-23T09:37:54.385Z,99293.13
2022-12-23T09:40:20.852Z,99298.69
2022-12-23T09:42:47.315Z,99295.09
2022-12-23T09:45:13.690Z,99298.31
2022-12-23T09:47:40.039Z,99306.59
2022-12-23T09:50:06.644Z,99302.25
2022-12-23T09:52:32.979Z,99304.50
2022-12-23T09:55:00.674Z,99304.50
2022-12-23T09:57:26.996Z,99315.50
2022-12-23T09:59:53.345Z,99304.25
2022-12-23T10:02:19.749Z,99305.88
2022-12-23T10:04:46.208Z,99306.69
2022-12-23T10:07:12.520Z,99301.56
2022-12-23T10:09:38.907Z,99305.88
2022-12-23T10:12:07.203Z,99310.44
2022-12-23T10:14:33.533Z,99308.09
2022-12-23T10:17:00.243Z,99309.78
2022-12-23T10:19:26.576Z,99307.78
2022-12-23T10:21:52.895Z,99320.94
2022-12-23T10:24:19.229Z,99314.13
2022-12-23T10:26:45.567Z,99321.94
2022-12-23T10:29:16.924Z,99322.41
2022-12-23T10:31:45.307Z,99316.03
2022-12-23T10:34:11.653Z,99325.09
2022-12-23T10:36:38.043Z,99319.09
2022-12-23T10:39:04.371Z,99312.19
2022-12-23T10:41:30.697Z,99319.47
2022-12-23T10:43:56.996Z,99307.78
2022-12-23T10:46:23.329Z,99315.87
2022-12-23T10:48:49.690Z,99312.56
2022-12-23T10:51:16.073Z,99309.25
2022-12-23T10:53:42.412Z,99298.31
2022-12-23T10:56:08.723Z,99298.81
2022-12-23T10:58:35.043Z,99296.72
2022-12-23T11:01:01.547Z,99293.41
2022-12-23T11:03:28.048Z,99289.94
2022-12-23T11:05:54.537Z,99294.13
2022-12-23T11:08:20.866Z,99279.75
2022-12-23T11:10:47.243Z,99294.44
2022-12-23T11:13:14.461Z,99298.41
2022-12-23T11:15:40.797Z,99299.03
2022-12-23T11:18:07.768Z,99292.34
2022-12-23T11:20:34.108Z,99306.31
2022-12-23T11:23:02.283Z,99307.19
2022-12-23T11:25:28.848Z,99311.16
2022-12-23T11:27:55.179Z,99307.50
2022-12-23T11:30:21.519Z,99300.16
2022-12-23T11:32:47.884Z,99301.78
2022-12-23T11:35:14.670Z,99313.56
2022-12-23T11:37:41.027Z,99313.94
2022-12-23T11:40:07.580Z,99308.44
2022-12-23T11:42:33.922Z,99312.19
2022-12-23T11:45:00.228Z,99314.44
2022-12-23T11:47:26.587Z,99313.00
2022-12-23T11:49:52.912Z,99318.75
2022-12-23T11:52:19.268Z,99318.19
2022-12-23T11:54:49.804Z,99321.69
2022-12-23T11:57:19.270Z,99320.53
2022-12-23T11:59:45.611Z,99330.22
2022-12-23T12:02:11.995Z,99326.81
2022-12-23T12:04:38.366Z,99328.25
2022-12-23T12:07:04.781Z,99329.87
2022-12-23T12:09:31.113Z,99341.62
2022-12-23T12:11:57.431Z,99336.06
2022-12-23T12:14:23.764Z,99330.41
2022-12-23T12:16:51.521Z,99328.09
2022-12-23T12:19:18.842Z,99331.28
2022-12-23T12:21:45.249Z,99324.66
2022-12-23T12:24:19.779Z,99313.28
2022-12-23T12:26:47.171Z,99317.34
2022-12-23T12:29:13.684Z,99315.97
2022-12-23T12:31:40.017Z,99311.44
2022-12-23T12:34:06.394Z,99316.22
2022-12-23T12:36:32.746Z,99313.97
2022-12-23T12:38:59.147Z,99304.72
2022-12-23T12:41:25.516Z,99304.91
2022-12-23T12:43:51.821Z,99312.00
2022-12-23T12:46:18.234Z,99314.59
2022-12-23T12:48:44.576Z,99319.12
2022-12-23T12:51:10.891Z,99318.75
2022-12-23T12:53:37.224Z,99318.75
2022-12-23T12:56:03.544Z,99314.59
2022-12-23T12:58:31.093Z,99313.69
2022-12-23T13:00:57.434Z,99319.22
2022-12-23T13:03:23.848Z,99323.19
2022-12-23T13:05:54.062Z,99315.41
2022-12-23T13:08:20.993Z,99318.88
2022-12-23T13:10:47.339Z,99315.13
2022-12-23T13:13:14.551Z,99314.22
2022-12-23T13:15:40.886Z,99313.50
2022-12-23T13:18:07.654Z,99316.66
2022-12-23T13:20:34.118Z,99318.62
2022-12-23T13:23:20.832Z,99318.22
2022-12-23T13:25:46.913Z,99310.72
2022-12-23T13:28:13.230Z,99316.16
2022-12-23T13:30:39.635Z,99307.47
2022-12-23T13:33:06.967Z,99300.44
2022-12-23T13:35:33.927Z,99303.09
2022-12-23T13:38:00.320Z,99295.53
2022-12-23T13:40:26.665Z,99297.81
2022-12-23T13:42:52.996Z,99302.66
2022-12-23T13:45:19.317Z,99297.81
2022-12-23T13:47:45.712Z,99295.09
2022-12-23T13:50:12.046Z,99295.75
2022-12-23T13:52:38.521Z,99295.75
2022-12-23T13:55:04.844Z,99297.72
2022-12-23T13:57:31.183Z,99295.75
2022-12-23T14:00:04.658Z,99298.81
2022-12-23T14:02:32.194Z,99296.50
2022-12-23T14:04:58.774Z,99287.66
2022-12-23T14:07:25.081Z,99287.38
2022-12-23T14:09:51.384Z,99292.81
2022-12-23T14:12:17.695Z,99280.56
2022-12-23T14:14:44.049Z,99281.66
2022-12-23T14:17:10.370Z,99283.34
2022-12-23T14:19:36.682Z,99280.19
2022-12-23T14:22:02.982Z,99275.06
2022-12-23T14:24:29.307Z,99280.34
2022-12-23T14:26:55.618Z,99276.34
2022-12-23T14:29:21.941Z,99275.63
2022-12-23T14:31:48.318Z,99280.84
2022-12-23T14:34:14.690Z,99275.56
2022-12-23T14:36:41.148Z,99277.87
2022-12-23T14:39:07.889Z,99275.34
2022-12-23T14:41:34.206Z,99278.06
2022-12-23T14:44:02.857Z,99283.25
2022-12-23T14:46:29.377Z,99287.22
2022-12-23T14:49:15.938Z,99287.22
2022-12-23T14:51:42.104Z,99286.44
2022-12-23T14:54:08.412Z,99288.84
2022-12-23T14:56:34.732Z,99270.50
2022-12-23T14:59:01.085Z,99266.09
2022-12-23T15:01:27.733Z,99266.44
2022-12-23T15:04:01.051Z,99274.38
2022-12-23T15:06:28.576Z,99276.37
2022-12-23T15:08:54.888Z,99267.03
2022-12-23T15:11:21.681Z,99271.88
2022-12-23T15:13:47.992Z,99270.91
2022-12-23T15:16:14.545Z,99274.22
2022-12-23T15:18:40.872Z,99274.09
2022-12-23T15:21:07.188Z,99276.66
2022-12-23T15:23:34.000Z,99275.75
2022-12-23T15:26:00.365Z,99271.03
2022-12-23T15:28:26.857Z,99278.44
2022-12-23T15:30:53.289Z,99296.44
2022-12-23T15:33:51.994Z,99290.41
2022-12-23T15:36:06.111Z,99298.16
2022-12-23T15:38:32.462Z,99290.31
2022-12-23T15:40:58.967Z,99287.63
2022-12-23T15:43:25.483Z,99286.50
2022-12-23T15:45:52.311Z,99264.91
2022-12-23T15:48:18.623Z,99275.81
2022-12-23T15:50:44.943Z,99262.78
2022-12-23T15:53:11.295Z,99272.16
2022-12-23T15:55:37.637Z,99263.59
2022-12-23T15:58:03.993Z,99266.47
2022-12-23T16:00:30.420Z,99264.03
2022-12-23T16:03:02.514Z,99257.19
2022-12-23T16:05:30.212Z,99254.78
2022-12-23T16:07:56.537Z,99263.44
2022-12-23T16:10:22.855Z,99261.00
2022-12-23T16:12:49.157Z,99259.09
2022-12-23T16:15:19.631Z,99268.28
2022-12-23T16:17:45.939Z,99272.66
2022-12-23T16:20:12.291Z,99262.78
2022-12-23T16:22:38.619Z,99262.34
2022-12-23T16:25:04.954Z,99261.50
2022-12-23T16:27:31.281Z,99261.16
2022-12-23T16:29:57.753Z,99251.47
2022-12-23T16:32:24.154Z,99254.53
2022-12-23T16:34:50.563Z,99257.31
2022-12-23T16:37:16.888Z,99254.53
2022-12-23T16:39:43.215Z,99247.06
2022-12-23T16:42:09.574Z,99252.50
2022-12-23T16:44:35.906Z,99254.37
2022-12-23T16:47:02.206Z,99251.88
2022-12-23T16:49:33.396Z,99244.03
2022-12-23T16:52:00.428Z,99248.72
2022-12-23T16:54:26.761Z,99248.72
2022-12-23T16:56:53.191Z,99247.19
2022-12-23T16:59:20.713Z,99246.31
2022-12-23T17:01:47.283Z,99239.97
2022-12-23T17:04:13.777Z,99243.44
2022-12-23T17:06:40.984Z,99234.16
2022-12-23T17:09:08.351Z,99235.16
2022-12-23T17:11:34.665Z,99243.47
2022-12-23T17:14:05.681Z,99239.94
2022-12-23T17:16:33.225Z,99236.06
2022-12-23T17:19:00.212Z,99238.84
2022-12-23T17:21:26.572Z,99229.44
2022-12-23T17:23:52.900Z,99215.66
2022-12-23T17:26:19.236Z,99219.38
2022-12-23T17:28:45.896Z,99211.53
2022-12-23T17:31:15.403Z,99213.09
2022-12-23T17:33:43.532Z,99204.47
2022-12-23T17:36:09.928Z,99204.56
2022-12-23T17:38:36.305Z,99200.19
2022-12-23T17:41:03.340Z,99186.53
2022-12-23T17:43:29.816Z,99178.44
2022-12-23T17:45:56.190Z,99174.41
2022-12-23T17:48:26.664Z,99175.22
2022-12-23T17:50:57.605Z,99175.66
2022-12-23T17:53:23.977Z,99173.53
2022-12-23T17:55:50.300Z,99163.09
2022-12-23T17:58:16.756Z,99159.94
2022-12-23T18:00:43.281Z,99168.94
2022-12-23T18:03:09.694Z,99167.41
2022-12-23T18:05:36.342Z,99164.63
2022-12-23T18:08:02.681Z,99157.78
2022-12-23T18:10:29.095Z,99152.22
2022-12-23T18:12:55.417Z,99149.91
2022-12-23T18:15:21.730Z,99143.91
2022-12-23T18:17:48.058Z,99155.31
2022-12-23T18:20:14.383Z,99160.59
2022-12-23T18:22:40.733Z,99174.22
2022-12-23T18:25:07.067Z,99171.19
2022-12-23T18:27:33.401Z,99170.91
2022-12-23T18:29:59.746Z,99161.41
2022-12-23T18:32:26.109Z,99164.81
2022-12-23T18:34:52.469Z,99164.53
2022-12-23T18:37:18.772Z,99161.03
2022-12-23T18:39:45.116Z,99160.88
2022-12-23T18:42:11.427Z,99166.50
2022-12-23T18:44:37.729Z,99156.91
2022-12-23T18:47:04.025Z,99176.66
2022-12-23T18:49:30.381Z,99176.53
2022-12-23T18:51:56.676Z,99171.34
2022-12-23T18:54:22.982Z,99174.47
2022-12-23T18:56:49.456Z,99165.69
2022-12-23T18:59:15.791Z,99173.91
2022-12-23T19:01:42.239Z,99169.91
2022-12-23T19:04:08.607Z,99168.34
2022-12-23T19:06:34.952Z,99173.47
2022-12-23T19:09:01.251Z,99179.84
2022-12-23T19:11:27.581Z,99162.44
2022-12-23T19:13:53.925Z,99170.22
2022-12-23T19:16:20.590Z,99169.44
2022-12-23T19:18:47.030Z,99157.88
2022-12-23T19:21:13.431Z,99155.87
2022-12-23T19:23:39.739Z,99151.38
2022-12-23T19:26:06.371Z,99145.00
2022-12-23T19:28:32.708Z,99127.03
2022-12-23T19:30:59.096Z,99121.47
2022-12-23T19:33:25.608Z,99121.47
2022-12-23T19:35:51.921Z,99124.09
2022-12-23T19:38:18.243Z,99112.50
2022-12-23T19:40:44.759Z,99108.72
2022-12-23T19:43:11.106Z,99099.00
2022-12-23T19:45:37.491Z,99094.47
2022-12-23T19:48:03.896Z,99084.31
2022-12-23T19:50:30.312Z,99080.41
2022-12-23T19:52:56.875Z,99065.59
2022-12-23T19:55:23.270Z,99063.78
2022-12-23T19:57:53.386Z,99052.91
2022-12-23T20:00:19.760Z,99051.84
2022-12-23T20:02:46.268Z,99054.00
2022-12-23T20:05:12.621Z,99043.25
2022-12-23T20:07:39.165Z,99030.44
2022-12-23T20:10:05.543Z,99029.19
2022-12-23T20:12:31.967Z,99028.38
2022-12-23T20:14:58.288Z,99012.16
2022-12-23T20:17:24.609Z,99007.56
2022-12-23T20:19:50.952Z,98999.88
2022-12-23T20:22:17.280Z,99001.75
2022-12-23T20:24:43.623Z,99002.84
2022-12-23T20:27:12.503Z,98996.00
2022-12-23T20:29:39.587Z,98996.00
2022-12-23T20:32:05.982Z,98998.44
2022-12-23T20:34:38.606Z,99005.63
2022-12-23T20:37:05.737Z,99005.94
2022-12-23T20:39:32.100Z,99001.56
2022-12-23T20:41:58.487Z,99009.28
2022-12-23T20:44:34.430Z,98996.38
2022-12-23T20:47:01.848Z,98996.00
2022-12-23T20:49:28.269Z,98997.19
2022-12-23T20:51:54.594Z,99009.47
2022-12-23T20:54:31.672Z,98998.44
2022-12-23T20:56:59.426Z,98999.59
2022-12-23T20:59:25.724Z,98988.84
2022-12-23T21:01:52.220Z,98983.81
2022-12-23T21:04:18.591Z,98998.44
2022-12-23T21:06:44.972Z,98994.31
2022-12-23T21:09:11.760Z,99006.31
2022-12-23T21:11:38.365Z,99004.50
2022-12-23T21:14:07.097Z,99004.28
2022-12-23T21:16:33.887Z,99008.66
2022-12-23T21:19:00.292Z,99000.31
2022-12-23T21:21:26.736Z,98985.34
2022-12-23T21:23:53.052Z,98988.19
2022-12-23T21:26:19.408Z,98986.41
2022-12-23T21:28:48.890Z,98985.16
2022-12-23T21:31:15.352Z,98974.31
2022-12-23T21:33:41.695Z,98976.00
2022-12-23T21:36:08.090Z,98973.78
2022-12-23T21:38:34.500Z,98962.38
2022-12-23T21:41:00.831Z,98962.38
2022-12-23T21:43:27.201Z,98959.41
2022-12-23T21:45:53.525Z,98958.63
2022-12-23T21:48:19.858Z,98960.50
2022-12-23T21:50:46.192Z,98958.53
2022-12-23T21:53:12.674Z,98954.75
2022-12-23T21:55:38.982Z,98963.66
2022-12-23T21:58:05.296Z,98961.12
2022-12-23T22:00:31.647Z,98941.94
2022-12-23T22:02:58.016Z,98946.84
2022-12-23T22:05:24.351Z,98955.31
2022-12-23T22:07:50.653Z,98951.00
2022-12-23T22:10:16.958Z,98946.25
2022-12-23T22:12:43.268Z,98947.34
2022-12-23T22:15:11.643Z,98942.81
2022-12-23T22:17:38.362Z,98941.41
2022-12-23T22:20:04.677Z,98938.50
2022-12-23T22:22:30.998Z,98953.84
2022-12-23T22:24:57.329Z,98956.63
2022-12-23T22:27:23.637Z,98963.75
2022-12-23T22:29:49.949Z,98956.28
2022-12-23T22:32:16.302Z,98967.69
2022-12-23T22:34:42.607Z,98968.88
2022-12-23T22:37:08.912Z,98963.75
2022-12-23T22:39:35.249Z,98978.59
2022-12-23T22:42:01.570Z,98984.38
2022-12-23T22:44:27.881Z,98988.84
2022-12-23T22:46:54.218Z,98983.81
2022-12-23T22:49:20.605Z,98995.94
2022-12-23T22:51:46.965Z,98999.81
2022-12-23T22:54:13.339Z,99006.06
2022-12-23T22:56:39.718Z,99010.72
2022-12-23T22:59:06.053Z,99017.34
2022-12-23T23:01:32.401Z,99009.69
2022-12-23T23:03:58.761Z,99018.81
2022-12-23T23:06:25.148Z,99021.62
2022-12-23T23:08:51.459Z,99031.00
2022-12-23T23:11:17.779Z,99030.34
2022-12-23T23:13:44.098Z,99047.41
2022-12-23T23:16:10.592Z,99049.19
2022-12-23T23:18:39.382Z,99051.03
2022-12-23T23:21:05.836Z,99042.47
2022-12-23T23:23:32.185Z,99047.25
2022-12-23T23:25:58.534Z,99031.22
2022-12-23T23:28:24.845Z,99058.13
2022-12-23T23:31:09.780Z,99062.75
2022-12-23T23:33:37.672Z,99052.94
2022-12-23T23:36:04.031Z,99046.84
2022-12-23T23:38:30.390Z,99056.87
2022-12-23T23:40:56.725Z,99045.19
2022-12-23T23:43:23.070Z,99051.34
2022-12-23T23:45:49.563Z,99049.09
2022-12-23T23:48:16.303Z,99056.00
2022-12-23T23:50:42.609Z,99053.25
2022-12-23T23:53:08.957Z,99060.66
2022-12-23T23:55:35.282Z,99049.44
2022-12-23T23:58:01.666Z,99055.47
